createdAt,value
2018-07-30T00:00:32.593Z,1009.47
2018-07-30T00:02:27.507Z,1009.45
2018-07-30T00:03:27.002Z,1009.45
2018-07-30T00:05:21.489Z,1009.45
2018-07-30T00:06:21.447Z,1009.44
2018-07-30T00:08:14.894Z,1009.45
2018-07-30T00:09:14.906Z,1009.44
2018-07-30T00:11:09.876Z,1009.45
2018-07-30T00:12:09.367Z,1009.45
2018-07-30T00:14:03.803Z,1009.43
2018-07-30T00:15:03.826Z,1009.44
2018-07-30T00:16:57.284Z,1009.43
2018-07-30T00:17:57.310Z,1009.45
2018-07-30T00:19:51.780Z,1009.45
2018-07-30T00:20:52.761Z,1009.43
2018-07-30T00:22:48.240Z,1009.46
2018-07-30T00:23:47.727Z,1009.49
2018-07-30T00:25:43.678Z,1009.51
2018-07-30T00:26:44.191Z,1009.44
2018-07-30T00:28:37.152Z,1009.48
2018-07-30T00:29:37.138Z,1009.42
2018-07-30T00:31:35.632Z,1009.51
2018-07-30T00:32:36.089Z,1009.50
2018-07-30T00:34:31.218Z,1009.51
2018-07-30T00:35:31.245Z,1009.51
2018-07-30T00:37:27.199Z,1009.51
2018-07-30T00:38:27.199Z,1009.47
2018-07-30T00:40:21.664Z,1009.50
2018-07-30T00:41:21.667Z,1009.45
2018-07-30T00:43:15.161Z,1009.52
2018-07-30T00:44:15.127Z,1009.51
2018-07-30T00:46:09.615Z,1009.55
2018-07-30T00:47:09.604Z,1009.53
2018-07-30T00:49:03.047Z,1009.50
2018-07-30T00:50:03.078Z,1009.51
2018-07-30T00:51:58.033Z,1009.50
2018-07-30T00:52:58.042Z,1009.48
2018-07-30T00:54:52.487Z,1009.53
2018-07-30T00:55:52.502Z,1009.52
2018-07-30T00:57:48.443Z,1009.47
2018-07-30T00:58:47.940Z,1009.46
2018-07-30T01:00:42.378Z,1009.46
2018-07-30T01:01:42.887Z,1009.48
2018-07-30T01:03:36.853Z,1009.51
2018-07-30T01:04:37.345Z,1009.49
2018-07-30T01:06:31.818Z,1009.54
2018-07-30T01:07:31.348Z,1009.55
2018-07-30T01:09:26.292Z,1009.58
2018-07-30T01:10:25.792Z,1009.59
2018-07-30T01:12:21.782Z,1009.60
2018-07-30T01:13:22.264Z,1009.61
2018-07-30T01:15:16.238Z,1009.63
2018-07-30T01:16:16.190Z,1009.67
2018-07-30T01:18:10.666Z,1009.67
2018-07-30T01:19:10.660Z,1009.68
2018-07-30T01:21:05.146Z,1009.70
2018-07-30T01:22:05.630Z,1009.71
2018-07-30T01:24:01.123Z,1009.73
2018-07-30T01:25:01.078Z,1009.79
2018-07-30T01:26:54.525Z,1009.74
2018-07-30T01:27:54.538Z,1009.75
2018-07-30T01:29:49.503Z,1009.67
2018-07-30T01:30:49.001Z,1009.67
2018-07-30T01:32:44.966Z,1009.65
2018-07-30T01:33:44.966Z,1009.67
2018-07-30T01:35:40.860Z,1009.69
2018-07-30T01:36:40.897Z,1009.67
2018-07-30T01:38:36.358Z,1009.65
2018-07-30T01:39:35.353Z,1009.67
2018-07-30T01:41:31.324Z,1009.66
2018-07-30T01:42:31.327Z,1009.66
2018-07-30T01:44:26.286Z,1009.64
2018-07-30T01:45:25.784Z,1009.65
2018-07-30T01:47:20.268Z,1009.70
2018-07-30T01:48:20.756Z,1009.69
2018-07-30T01:50:15.219Z,1009.71
2018-07-30T01:51:14.711Z,1009.73
2018-07-30T01:53:10.692Z,1009.71
2018-07-30T01:54:11.678Z,1009.69
2018-07-30T01:56:06.666Z,1009.70
2018-07-30T01:57:06.657Z,1009.69
2018-07-30T01:59:01.136Z,1009.63
2018-07-30T02:00:01.117Z,1009.60
2018-07-30T02:01:57.081Z,1009.62
2018-07-30T02:02:57.060Z,1009.64
2018-07-30T02:04:51.481Z,1009.68
2018-07-30T02:05:51.484Z,1009.66
2018-07-30T02:07:44.924Z,1009.64
2018-07-30T02:08:44.941Z,1009.68
2018-07-30T02:10:39.907Z,1009.70
2018-07-30T02:11:39.919Z,1009.70
2018-07-30T02:13:35.378Z,1009.77
2018-07-30T02:14:35.872Z,1009.76
2018-07-30T02:16:29.836Z,1009.75
2018-07-30T02:17:29.827Z,1009.76
2018-07-30T02:19:23.273Z,1009.80
2018-07-30T02:20:23.283Z,1009.82
2018-07-30T02:22:17.727Z,1009.80
2018-07-30T02:23:17.766Z,1009.83
2018-07-30T02:25:12.223Z,1009.77
2018-07-30T02:26:12.189Z,1009.76
2018-07-30T02:28:05.607Z,1009.76
2018-07-30T02:29:07.147Z,1009.77
2018-07-30T02:31:00.077Z,1009.75
2018-07-30T02:32:00.075Z,1009.78
2018-07-30T02:33:54.513Z,1009.75
2018-07-30T02:34:54.537Z,1009.80
2018-07-30T02:36:48.999Z,1009.77
2018-07-30T02:37:49.017Z,1009.75
2018-07-30T02:39:44.023Z,1009.78
2018-07-30T02:40:43.462Z,1009.79
2018-07-30T02:42:37.954Z,1009.78
2018-07-30T02:43:38.427Z,1009.77
2018-07-30T02:45:32.354Z,1009.77
2018-07-30T02:46:32.365Z,1009.76
2018-07-30T02:48:27.826Z,1009.79
2018-07-30T02:49:26.801Z,1009.78
2018-07-30T02:51:20.767Z,1009.76
2018-07-30T02:52:20.257Z,1009.84
2018-07-30T02:54:15.217Z,1009.87
2018-07-30T02:55:14.714Z,1009.85
2018-07-30T02:57:09.196Z,1009.88
2018-07-30T02:58:09.192Z,1009.92
2018-07-30T03:00:04.144Z,1009.90
2018-07-30T03:01:03.648Z,1009.90
2018-07-30T03:02:59.619Z,1009.90
2018-07-30T03:04:00.105Z,1009.89
2018-07-30T03:05:55.536Z,1009.90
2018-07-30T03:06:55.546Z,1009.89
2018-07-30T03:08:50.016Z,1009.84
2018-07-30T03:09:50.012Z,1009.85
2018-07-30T03:11:44.493Z,1009.85
2018-07-30T03:12:44.477Z,1009.83
2018-07-30T03:14:39.445Z,1009.81
2018-07-30T03:15:38.947Z,1009.83
2018-07-30T03:17:33.414Z,1009.82
2018-07-30T03:18:33.437Z,1009.83
2018-07-30T03:20:26.844Z,1009.85
2018-07-30T03:21:26.860Z,1009.90
2018-07-30T03:23:21.330Z,1009.90
2018-07-30T03:24:21.345Z,1009.98
2018-07-30T03:26:15.294Z,1010.02
2018-07-30T03:27:15.299Z,1010.05
2018-07-30T03:29:09.262Z,1010.07
2018-07-30T03:30:09.246Z,1010.06
2018-07-30T03:32:04.725Z,1010.01
2018-07-30T03:33:03.699Z,1010.03
2018-07-30T03:34:57.119Z,1010.00
2018-07-30T03:35:57.132Z,1010.06
2018-07-30T03:37:51.570Z,1010.09
2018-07-30T03:38:51.566Z,1010.11
2018-07-30T03:40:46.030Z,1010.15
2018-07-30T03:41:46.036Z,1010.14
2018-07-30T03:43:40.993Z,1010.06
2018-07-30T03:44:40.995Z,1010.11
2018-07-30T03:46:34.471Z,1010.14
2018-07-30T03:47:33.945Z,1010.13
2018-07-30T03:49:28.433Z,1010.16
2018-07-30T03:50:28.403Z,1010.14
2018-07-30T03:52:21.849Z,1010.15
2018-07-30T03:53:22.363Z,1010.12
2018-07-30T03:55:18.821Z,1010.12
2018-07-30T03:56:17.784Z,1010.13
2018-07-30T03:58:13.758Z,1010.17
2018-07-30T03:59:13.728Z,1010.13
2018-07-30T04:01:09.687Z,1010.16
2018-07-30T04:02:08.702Z,1010.17
2018-07-30T04:04:04.168Z,1010.21
2018-07-30T04:05:02.675Z,1010.28
2018-07-30T04:06:57.157Z,1010.24
2018-07-30T04:07:57.711Z,1010.22
2018-07-30T04:09:52.024Z,1010.29
2018-07-30T04:10:51.208Z,1010.25
2018-07-30T04:12:46.630Z,1010.31
2018-07-30T04:13:46.560Z,1010.33
2018-07-30T04:15:40.979Z,1010.33
2018-07-30T04:16:40.986Z,1010.33
2018-07-30T04:18:35.477Z,1010.33
2018-07-30T04:19:35.450Z,1010.31
2018-07-30T04:21:29.924Z,1010.33
2018-07-30T04:22:29.941Z,1010.30
2018-07-30T04:24:23.366Z,1010.31
2018-07-30T04:25:23.902Z,1010.31
2018-07-30T04:27:18.332Z,1010.36
2018-07-30T04:28:17.819Z,1010.35
2018-07-30T04:30:13.313Z,1010.33
2018-07-30T04:31:12.285Z,1010.34
2018-07-30T04:33:06.725Z,1010.37
2018-07-30T04:34:07.247Z,1010.38
2018-07-30T04:36:02.724Z,1010.36
2018-07-30T04:37:02.707Z,1010.43
2018-07-30T04:38:58.658Z,1010.44
2018-07-30T04:39:59.171Z,1010.47
2018-07-30T04:41:53.632Z,1010.42
2018-07-30T04:42:53.120Z,1010.43
2018-07-30T04:44:48.596Z,1010.48
2018-07-30T04:45:46.625Z,1010.44
2018-07-30T04:47:41.584Z,1010.45
2018-07-30T04:48:41.083Z,1010.45
2018-07-30T04:50:35.535Z,1010.49
2018-07-30T04:51:36.465Z,1010.44
2018-07-30T04:53:29.998Z,1010.48
2018-07-30T04:54:30.022Z,1010.51
2018-07-30T04:56:24.972Z,1010.58
2018-07-30T04:57:24.456Z,1010.59
2018-07-30T04:59:19.922Z,1010.61
2018-07-30T05:00:18.902Z,1010.57
2018-07-30T05:02:13.374Z,1010.54
2018-07-30T05:03:13.862Z,1010.55
2018-07-30T05:05:07.772Z,1010.56
2018-07-30T05:06:07.809Z,1010.53
2018-07-30T05:08:02.760Z,1010.56
2018-07-30T05:09:02.252Z,1010.55
2018-07-30T05:10:56.710Z,1010.58
2018-07-30T05:11:56.714Z,1010.58
2018-07-30T05:13:51.193Z,1010.62
2018-07-30T05:14:51.684Z,1010.63
2018-07-30T05:16:48.140Z,1010.68
2018-07-30T05:17:47.140Z,1010.64
2018-07-30T05:19:40.605Z,1010.67
2018-07-30T05:20:40.632Z,1010.66
2018-07-30T05:22:35.562Z,1010.60
2018-07-30T05:23:35.061Z,1010.61
2018-07-30T05:25:30.991Z,1010.60
2018-07-30T05:26:30.985Z,1010.64
2018-07-30T05:28:25.457Z,1010.63
2018-07-30T05:29:25.466Z,1010.62
2018-07-30T05:31:19.910Z,1010.65
2018-07-30T05:32:19.904Z,1010.61
2018-07-30T05:34:14.361Z,1010.67
2018-07-30T05:35:14.859Z,1010.60
2018-07-30T05:37:09.382Z,1010.63
2018-07-30T05:38:09.325Z,1010.66
2018-07-30T05:40:04.289Z,1010.69
2018-07-30T05:41:03.288Z,1010.71
2018-07-30T05:42:58.249Z,1010.71
2018-07-30T05:43:58.281Z,1010.74
2018-07-30T05:45:53.214Z,1010.68
2018-07-30T05:46:52.724Z,1010.72
2018-07-30T05:48:46.656Z,1010.76
2018-07-30T05:49:45.639Z,1010.74
2018-07-30T05:51:40.148Z,1010.79
2018-07-30T05:52:40.124Z,1010.76
2018-07-30T05:54:34.620Z,1010.75
2018-07-30T05:55:35.092Z,1010.74
2018-07-30T05:57:31.056Z,1010.72
2018-07-30T05:58:31.555Z,1010.75
2018-07-30T06:00:25.071Z,1010.74
2018-07-30T06:01:26.036Z,1010.76
2018-07-30T06:03:19.503Z,1010.74
2018-07-30T06:04:19.523Z,1010.73
2018-07-30T06:06:13.998Z,1010.74
2018-07-30T06:07:13.996Z,1010.77
2018-07-30T06:09:08.435Z,1010.77
2018-07-30T06:10:09.385Z,1010.79
2018-07-30T06:12:03.416Z,1010.75
2018-07-30T06:13:02.899Z,1010.75
2018-07-30T06:14:57.340Z,1010.74
2018-07-30T06:15:57.334Z,1010.71
2018-07-30T06:17:54.303Z,1010.73
2018-07-30T06:18:53.310Z,1010.74
2018-07-30T06:20:48.293Z,1010.76
2018-07-30T06:21:47.764Z,1010.75
2018-07-30T06:23:42.752Z,1010.74
2018-07-30T06:24:43.239Z,1010.76
2018-07-30T06:26:38.236Z,1010.82
2018-07-30T06:27:38.202Z,1010.84
2018-07-30T06:29:35.166Z,1010.80
2018-07-30T06:30:34.168Z,1010.89
2018-07-30T06:32:32.142Z,1010.85
2018-07-30T06:33:31.125Z,1010.86
2018-07-30T06:35:27.115Z,1010.84
2018-07-30T06:36:27.601Z,1010.82
2018-07-30T06:38:25.052Z,1010.86
2018-07-30T06:39:24.540Z,1010.84
2018-07-30T06:41:19.010Z,1010.82
2018-07-30T06:42:19.496Z,1010.82
2018-07-30T06:44:14.456Z,1010.78
2018-07-30T06:45:14.996Z,1010.81
2018-07-30T06:47:10.451Z,1010.78
2018-07-30T06:48:11.453Z,1010.77
2018-07-30T06:50:05.415Z,1010.76
2018-07-30T06:51:05.916Z,1010.82
2018-07-30T06:53:01.381Z,1010.82
2018-07-30T06:54:01.883Z,1010.80
2018-07-30T06:55:55.383Z,1010.83
2018-07-30T06:56:55.365Z,1010.86
2018-07-30T06:58:52.332Z,1010.93
2018-07-30T06:59:51.331Z,1010.96
2018-07-30T07:01:44.818Z,1011.01
2018-07-30T07:02:44.795Z,1011.01
2018-07-30T07:04:39.763Z,1011.02
2018-07-30T07:05:39.274Z,1011.06
2018-07-30T07:07:35.250Z,1011.04
2018-07-30T07:08:35.260Z,1011.07
2018-07-30T07:10:31.253Z,1011.07
2018-07-30T07:11:32.243Z,1011.13
2018-07-30T07:13:27.234Z,1011.15
2018-07-30T07:14:27.193Z,1011.15
2018-07-30T07:16:21.677Z,1011.15
2018-07-30T07:17:22.667Z,1011.14
2018-07-30T07:19:16.154Z,1011.08
2018-07-30T07:20:16.650Z,1011.10
2018-07-30T07:22:10.640Z,1011.09
2018-07-30T07:23:11.106Z,1011.11
2018-07-30T07:25:09.578Z,1011.11
2018-07-30T07:26:08.558Z,1011.07
2018-07-30T07:28:03.112Z,1011.08
2018-07-30T07:29:03.947Z,1011.07
2018-07-30T07:30:58.980Z,1011.10
2018-07-30T07:31:56.511Z,1011.14
2018-07-30T07:33:50.974Z,1011.08
2018-07-30T07:34:50.991Z,1011.10
2018-07-30T07:36:48.432Z,1011.08
2018-07-30T07:37:46.936Z,1011.08
2018-07-30T07:39:42.387Z,1011.08
2018-07-30T07:40:42.393Z,1011.12
2018-07-30T07:42:37.401Z,1011.14
2018-07-30T07:43:37.370Z,1011.10
2018-07-30T07:45:31.802Z,1011.15
2018-07-30T07:46:31.824Z,1011.15
2018-07-30T07:48:27.795Z,1011.15
2018-07-30T07:49:28.778Z,1011.13
2018-07-30T07:51:23.773Z,1011.19
2018-07-30T07:52:24.252Z,1011.23
2018-07-30T07:54:18.235Z,1011.25
2018-07-30T07:55:18.722Z,1011.21
2018-07-30T07:57:14.194Z,1011.19
2018-07-30T07:58:14.184Z,1011.13
2018-07-30T08:00:12.166Z,1011.14
2018-07-30T08:01:13.149Z,1011.11
2018-07-30T08:03:07.126Z,1011.09
2018-07-30T08:04:07.622Z,1011.11
2018-07-30T08:06:00.125Z,1011.10
2018-07-30T08:07:01.111Z,1011.12
2018-07-30T08:08:57.611Z,1011.12
2018-07-30T08:09:56.186Z,1011.15
2018-07-30T08:11:50.557Z,1011.10
2018-07-30T08:12:49.565Z,1011.14
2018-07-30T08:14:45.521Z,1011.08
2018-07-30T08:15:44.039Z,1011.11
2018-07-30T08:17:42.999Z,1011.10
2018-07-30T08:18:42.996Z,1011.10
2018-07-30T08:20:37.482Z,1011.07
2018-07-30T08:21:36.505Z,1011.03
2018-07-30T08:23:30.987Z,1011.04
2018-07-30T08:24:31.967Z,1011.01
2018-07-30T08:26:26.963Z,1010.99
2018-07-30T08:27:26.959Z,1010.99
2018-07-30T08:29:23.932Z,1011.01
2018-07-30T08:32:19.914Z,1011.05
2018-07-30T08:33:18.893Z,1011.07
2018-07-30T08:35:13.333Z,1011.06
2018-07-30T08:36:13.863Z,1011.07
2018-07-30T08:38:08.813Z,1011.10
2018-07-30T08:39:07.826Z,1011.09
2018-07-30T08:41:03.778Z,1011.12
2018-07-30T08:42:03.786Z,1011.08
2018-07-30T08:44:00.259Z,1011.09
2018-07-30T08:44:59.750Z,1011.10
2018-07-30T08:46:53.218Z,1011.14
2018-07-30T08:47:53.220Z,1011.14
2018-07-30T08:49:49.205Z,1011.18
2018-07-30T08:50:48.193Z,1011.19
2018-07-30T08:52:41.678Z,1011.18
2018-07-30T08:53:42.171Z,1011.23
2018-07-30T08:55:36.655Z,1011.25
2018-07-30T08:56:37.173Z,1011.23
2018-07-30T08:58:33.780Z,1011.21
2018-07-30T08:59:33.754Z,1011.21
2018-07-30T09:01:29.715Z,1011.18
2018-07-30T09:02:30.230Z,1011.20
2018-07-30T09:04:25.699Z,1011.16
2018-07-30T09:05:26.194Z,1011.14
2018-07-30T09:07:20.680Z,1011.14
2018-07-30T09:08:20.688Z,1011.18
2018-07-30T09:10:13.223Z,1011.11
2018-07-30T09:11:14.165Z,1011.15
2018-07-30T09:13:10.145Z,1011.15
2018-07-30T09:14:10.645Z,1011.17
2018-07-30T09:16:09.629Z,1011.19
2018-07-30T09:17:07.126Z,1011.14
2018-07-30T09:19:03.597Z,1011.12
2018-07-30T09:20:04.613Z,1011.11
2018-07-30T09:22:04.544Z,1011.09
2018-07-30T09:23:03.555Z,1011.06
2018-07-30T09:25:00.030Z,1011.04
2018-07-30T09:26:00.440Z,1011.05
2018-07-30T09:27:57.966Z,1011.02
2018-07-30T09:28:57.452Z,1011.05
2018-07-30T09:31:26.435Z,1011.07
2018-07-30T09:32:26.467Z,1011.02
2018-07-30T09:34:24.433Z,1011.01
2018-07-30T09:35:24.919Z,1010.99
2018-07-30T09:37:21.395Z,1010.93
2018-07-30T09:38:21.384Z,1010.97
2018-07-30T09:40:16.408Z,1010.92
2018-07-30T09:41:16.387Z,1010.97
2018-07-30T09:43:13.868Z,1010.92
2018-07-30T09:44:13.362Z,1010.96
2018-07-30T09:46:10.342Z,1010.99
2018-07-30T09:47:10.830Z,1010.98
2018-07-30T09:49:06.302Z,1011.02
2018-07-30T09:50:06.815Z,1011.05
2018-07-30T09:52:04.296Z,1011.00
2018-07-30T09:53:05.274Z,1011.04
2018-07-30T09:55:00.265Z,1011.00
2018-07-30T09:56:00.751Z,1010.98
2018-07-30T09:57:55.680Z,1010.98
2018-07-30T09:58:54.683Z,1011.00
2018-07-30T10:00:50.669Z,1011.00
2018-07-30T10:01:50.669Z,1010.96
2018-07-30T10:03:47.164Z,1010.96
2018-07-30T10:04:47.145Z,1010.88
2018-07-30T10:06:42.629Z,1010.90
2018-07-30T10:07:42.609Z,1010.90
2018-07-30T10:09:38.578Z,1010.86
2018-07-30T10:10:38.583Z,1010.86
2018-07-30T10:12:34.580Z,1010.89
2018-07-30T10:13:34.562Z,1010.89
2018-07-30T10:15:31.523Z,1010.88
2018-07-30T10:16:31.022Z,1010.89
2018-07-30T10:18:26.622Z,1010.89
2018-07-30T10:19:26.967Z,1010.88
2018-07-30T10:21:23.428Z,1010.81
2018-07-30T10:22:22.953Z,1010.78
2018-07-30T10:24:30.412Z,1010.75
2018-07-30T10:25:29.413Z,1010.70
2018-07-30T10:27:22.901Z,1010.74
2018-07-30T10:28:22.832Z,1010.67
2018-07-30T10:30:17.907Z,1010.70
2018-07-30T10:31:17.909Z,1010.69
2018-07-30T10:33:13.905Z,1010.68
2018-07-30T10:34:14.865Z,1010.69
2018-07-30T10:36:09.911Z,1010.70
2018-07-30T10:37:09.902Z,1010.64
2018-07-30T10:39:05.905Z,1010.62
2018-07-30T10:40:05.886Z,1010.61
2018-07-30T10:42:01.864Z,1010.60
2018-07-30T10:43:02.850Z,1010.61
2018-07-30T10:44:57.865Z,1010.62
2018-07-30T10:45:57.814Z,1010.60
2018-07-30T10:47:54.303Z,1010.56
2018-07-30T10:48:53.788Z,1010.54
2018-07-30T10:50:48.260Z,1010.55
2018-07-30T10:51:48.299Z,1010.51
2018-07-30T10:53:44.786Z,1010.49
2018-07-30T10:54:44.285Z,1010.43
2018-07-30T10:56:41.271Z,1010.46
2018-07-30T10:57:40.265Z,1010.46
2018-07-30T10:59:36.245Z,1010.47
2018-07-30T11:00:37.224Z,1010.50
2018-07-30T11:02:32.229Z,1010.37
2018-07-30T11:03:33.210Z,1010.37
2018-07-30T11:05:28.230Z,1010.30
2018-07-30T11:06:28.697Z,1010.38
2018-07-30T11:08:24.149Z,1010.33
2018-07-30T11:09:26.703Z,1010.35
2018-07-30T11:11:20.644Z,1010.27
2018-07-30T11:12:20.111Z,1010.28
2018-07-30T11:14:17.080Z,1010.29
2018-07-30T11:15:16.096Z,1010.30
2018-07-30T11:17:12.076Z,1010.32
2018-07-30T11:18:12.110Z,1010.38
2018-07-30T11:20:08.020Z,1010.35
2018-07-30T11:21:09.034Z,1010.36
2018-07-30T11:23:02.531Z,1010.34
2018-07-30T11:24:02.545Z,1010.33
2018-07-30T11:25:57.022Z,1010.28
2018-07-30T11:26:57.021Z,1010.25
2018-07-30T11:28:50.477Z,1010.25
2018-07-30T11:29:50.494Z,1010.24
2018-07-30T11:31:43.976Z,1010.20
2018-07-30T11:32:43.958Z,1010.20
2018-07-30T11:34:43.436Z,1010.10
2018-07-30T11:35:42.104Z,1010.14
2018-07-30T11:37:38.076Z,1010.20
2018-07-30T11:38:38.557Z,1010.19
2018-07-30T11:40:31.540Z,1010.20
2018-07-30T11:41:31.547Z,1010.16
2018-07-30T11:43:25.042Z,1010.17
2018-07-30T11:44:26.007Z,1010.15
2018-07-30T11:46:20.499Z,1010.11
2018-07-30T11:47:19.522Z,1010.11
2018-07-30T11:49:13.998Z,1010.13
2018-07-30T11:50:14.492Z,1010.07
2018-07-30T11:52:08.393Z,1010.06
2018-07-30T11:53:07.466Z,1010.10
2018-07-30T11:55:04.945Z,1010.05
2018-07-30T11:56:03.395Z,1010.05
2018-07-30T11:57:59.385Z,1010.03
2018-07-30T11:58:59.384Z,1010.03
2018-07-30T12:00:53.881Z,1009.93
2018-07-30T12:01:54.479Z,1010.01
2018-07-30T12:03:50.340Z,1009.94
2018-07-30T12:04:49.849Z,1009.91
2018-07-30T12:06:45.807Z,1009.94
2018-07-30T12:07:46.831Z,1009.95
2018-07-30T12:09:40.307Z,1009.95
2018-07-30T12:10:41.306Z,1009.94
2018-07-30T12:12:34.791Z,1009.79
2018-07-30T12:13:34.865Z,1009.86
2018-07-30T12:15:30.737Z,1009.91
2018-07-30T12:16:30.760Z,1009.93
2018-07-30T12:18:26.728Z,1009.92
2018-07-30T12:19:26.723Z,1009.92
2018-07-30T12:21:22.676Z,1009.86
2018-07-30T12:22:23.186Z,1009.90
2018-07-30T12:24:19.232Z,1009.84
2018-07-30T12:25:18.700Z,1009.87
2018-07-30T12:27:16.676Z,1009.83
2018-07-30T12:28:17.164Z,1009.81
2018-07-30T12:30:14.742Z,1009.77
2018-07-30T12:31:15.138Z,1009.83
2018-07-30T12:33:10.636Z,1009.82
2018-07-30T12:34:11.632Z,1009.82
2018-07-30T12:36:10.123Z,1009.74
2018-07-30T12:37:09.595Z,1009.75
2018-07-30T12:39:06.887Z,1009.72
2018-07-30T12:40:06.882Z,1009.73
2018-07-30T12:42:03.350Z,1009.71
2018-07-30T12:43:01.853Z,1009.72
2018-07-30T12:44:55.847Z,1009.67
2018-07-30T12:45:55.354Z,1009.69
2018-07-30T12:47:49.248Z,1009.71
2018-07-30T12:48:50.298Z,1009.64
2018-07-30T12:50:42.773Z,1009.66
2018-07-30T12:51:43.816Z,1009.64
2018-07-30T12:53:40.242Z,1009.66
2018-07-30T12:54:38.742Z,1009.66
2018-07-30T12:56:34.720Z,1009.64
2018-07-30T12:57:35.723Z,1009.63
2018-07-30T12:59:30.221Z,1009.52
2018-07-30T13:00:30.195Z,1009.53
2018-07-30T13:02:25.704Z,1009.47
2018-07-30T13:03:25.217Z,1009.48
2018-07-30T13:05:22.199Z,1009.56
2018-07-30T13:06:21.160Z,1009.54
2018-07-30T13:08:14.693Z,1009.58
2018-07-30T13:09:14.642Z,1009.57
2018-07-30T13:11:09.144Z,1009.63
2018-07-30T13:12:10.112Z,1009.59
2018-07-30T13:14:05.121Z,1009.60
2018-07-30T13:15:05.114Z,1009.47
2018-07-30T13:17:01.117Z,1009.48
2018-07-30T13:19:15.575Z,1009.52
2018-07-30T13:20:15.593Z,1009.51
2018-07-30T13:22:10.077Z,1009.47
2018-07-30T13:23:11.057Z,1009.43
2018-07-30T13:25:06.134Z,1009.40
2018-07-30T13:26:06.000Z,1009.36
2018-07-30T13:28:00.492Z,1009.35
2018-07-30T13:29:00.482Z,1009.39
2018-07-30T13:30:53.980Z,1009.41
2018-07-30T13:31:54.952Z,1009.37
2018-07-30T13:33:49.001Z,1009.37
2018-07-30T13:34:47.480Z,1009.44
2018-07-30T13:36:43.956Z,1009.38
2018-07-30T13:37:43.471Z,1009.36
2018-07-30T13:39:39.461Z,1009.33
2018-07-30T13:40:40.452Z,1009.37
2018-07-30T13:42:35.927Z,1009.38
2018-07-30T13:43:34.936Z,1009.40
2018-07-30T13:45:29.938Z,1009.40
2018-07-30T13:46:29.982Z,1009.45
2018-07-30T13:48:23.386Z,1009.41
2018-07-30T13:49:23.385Z,1009.34
2018-07-30T13:51:19.368Z,1009.36
2018-07-30T13:52:20.358Z,1009.36
2018-07-30T13:54:13.873Z,1009.30
2018-07-30T13:55:15.271Z,1009.30
2018-07-30T13:57:09.858Z,1009.30
2018-07-30T13:58:10.815Z,1009.33
2018-07-30T14:00:05.835Z,1009.34
2018-07-30T14:02:22.321Z,1009.31
2018-07-30T14:03:21.798Z,1009.30
2018-07-30T14:05:17.792Z,1009.28
2018-07-30T14:06:17.787Z,1009.23
2018-07-30T14:08:15.219Z,1009.20
2018-07-30T14:09:14.648Z,1009.25
2018-07-30T14:11:12.312Z,1009.26
2018-07-30T14:12:11.798Z,1009.29
2018-07-30T14:14:08.285Z,1009.30
2018-07-30T14:15:07.797Z,1009.29
2018-07-30T14:17:06.250Z,1009.24
2018-07-30T14:18:06.257Z,1009.24
2018-07-30T14:20:01.715Z,1009.23
2018-07-30T14:21:01.731Z,1009.25
2018-07-30T14:22:58.217Z,1009.23
2018-07-30T14:23:57.731Z,1009.26
2018-07-30T14:25:53.741Z,1009.25
2018-07-30T14:26:54.197Z,1009.23
2018-07-30T14:28:48.151Z,1009.21
2018-07-30T14:29:48.173Z,1009.14
2018-07-30T14:31:44.145Z,1009.17
2018-07-30T14:32:44.137Z,1009.18
2018-07-30T14:34:40.634Z,1009.18
2018-07-30T14:35:40.164Z,1009.23
2018-07-30T14:37:36.166Z,1009.19
2018-07-30T14:38:36.160Z,1009.20
2018-07-30T14:40:30.628Z,1009.10
2018-07-30T14:41:30.643Z,1009.10
2018-07-30T14:43:25.117Z,1009.13
2018-07-30T14:44:25.116Z,1009.12
2018-07-30T14:46:20.083Z,1009.14
2018-07-30T14:47:19.600Z,1009.17
2018-07-30T14:49:13.069Z,1009.15
2018-07-30T14:50:14.087Z,1009.14
2018-07-30T14:52:08.071Z,1009.16
2018-07-30T14:53:07.575Z,1009.14
2018-07-30T14:55:04.552Z,1009.17
2018-07-30T14:56:03.553Z,1009.12
2018-07-30T14:57:59.499Z,1009.02
2018-07-30T14:58:59.502Z,1009.04
2018-07-30T15:00:53.917Z,1009.01
2018-07-30T15:01:52.981Z,1008.94
2018-07-30T15:03:50.472Z,1008.96
2018-07-30T15:04:48.970Z,1009.00
2018-07-30T15:06:44.958Z,1008.97
2018-07-30T15:07:44.972Z,1008.94
2018-07-30T15:09:40.436Z,1008.92
2018-07-30T15:10:39.443Z,1008.92
2018-07-30T15:12:34.529Z,1008.92
2018-07-30T15:13:34.440Z,1008.89
2018-07-30T15:15:30.921Z,1008.91
2018-07-30T15:16:30.910Z,1008.92
2018-07-30T15:18:26.382Z,1008.89
2018-07-30T15:19:26.403Z,1008.90
2018-07-30T15:21:22.351Z,1008.84
2018-07-30T15:22:23.335Z,1008.88
2018-07-30T15:24:16.317Z,1008.89
2018-07-30T15:25:16.745Z,1008.96
2018-07-30T15:27:11.817Z,1008.92
2018-07-30T15:28:12.807Z,1008.90
2018-07-30T15:30:07.798Z,1008.92
2018-07-30T15:31:07.785Z,1008.86
2018-07-30T15:33:04.266Z,1008.86
2018-07-30T15:34:03.780Z,1008.84
2018-07-30T15:36:00.757Z,1008.91
2018-07-30T15:37:00.737Z,1008.86
2018-07-30T15:38:55.850Z,1008.90
2018-07-30T15:39:55.853Z,1008.92
2018-07-30T15:41:50.345Z,1008.90
2018-07-30T15:42:50.347Z,1008.92
2018-07-30T15:44:45.829Z,1008.91
2018-07-30T15:45:44.884Z,1008.92
2018-07-30T15:47:40.859Z,1008.86
2018-07-30T15:48:40.839Z,1008.86
2018-07-30T15:50:36.814Z,1008.87
2018-07-30T15:51:37.744Z,1008.85
2018-07-30T15:53:30.338Z,1008.83
2018-07-30T15:54:31.304Z,1008.84
2018-07-30T15:56:27.272Z,1008.84
2018-07-30T15:57:27.281Z,1008.91
2018-07-30T15:59:21.776Z,1008.93
2018-07-30T16:00:20.804Z,1008.90
2018-07-30T16:02:15.262Z,1008.92
2018-07-30T16:03:15.276Z,1008.93
2018-07-30T16:05:11.746Z,1008.94
2018-07-30T16:06:11.233Z,1008.93
2018-07-30T16:08:08.695Z,1008.90
2018-07-30T16:10:23.177Z,1008.87
2018-07-30T16:11:23.195Z,1008.83
2018-07-30T16:13:19.179Z,1008.79
2018-07-30T16:14:19.191Z,1008.81
2018-07-30T16:16:15.156Z,1008.81
2018-07-30T16:17:15.162Z,1008.83
2018-07-30T16:19:11.146Z,1008.86
2018-07-30T16:20:11.145Z,1008.87
2018-07-30T16:22:07.124Z,1008.84
2018-07-30T16:23:07.199Z,1008.77
2018-07-30T16:25:03.071Z,1008.79
2018-07-30T16:26:03.069Z,1008.81
2018-07-30T16:27:59.553Z,1008.79
2018-07-30T16:28:59.051Z,1008.77
2018-07-30T16:30:56.584Z,1008.77
2018-07-30T16:31:55.082Z,1008.81
2018-07-30T16:33:52.063Z,1008.80
2018-07-30T16:34:51.102Z,1008.83
2018-07-30T16:36:47.084Z,1008.85
2018-07-30T16:37:47.122Z,1008.84
2018-07-30T16:39:44.071Z,1008.84
2018-07-30T16:40:43.088Z,1008.84
2018-07-30T16:42:39.561Z,1008.84
2018-07-30T16:43:39.079Z,1008.83
2018-07-30T16:45:37.009Z,1008.95
2018-07-30T16:46:37.557Z,1008.97
2018-07-30T16:48:34.489Z,1008.99
2018-07-30T16:49:33.021Z,1009.03
2018-07-30T16:53:04.358Z,1009.12
2018-07-30T16:55:23.328Z,1009.29
2018-07-30T16:56:20.339Z,1009.25
2018-07-30T16:58:16.807Z,1009.32
2018-07-30T17:00:32.297Z,1009.32
2018-07-30T17:01:32.316Z,1009.32
2018-07-30T17:03:28.285Z,1009.04
2018-07-30T17:04:28.286Z,1009.18
2018-07-30T17:06:24.267Z,1009.24
2018-07-30T17:07:24.276Z,1009.22
2018-07-30T17:09:22.279Z,1009.11
2018-07-30T17:10:22.258Z,1008.94
2018-07-30T17:12:16.733Z,1008.85
2018-07-30T17:13:16.743Z,1008.89
2018-07-30T17:15:15.726Z,1008.89
2018-07-30T17:16:14.689Z,1008.92
2018-07-30T17:18:11.671Z,1008.88
2018-07-30T17:19:10.674Z,1008.89
2018-07-30T17:21:06.673Z,1008.92
2018-07-30T17:22:07.627Z,1008.92
2018-07-30T17:24:02.636Z,1008.94
2018-07-30T17:25:02.657Z,1008.98
2018-07-30T17:26:57.146Z,1008.90
2018-07-30T17:27:57.134Z,1008.93
2018-07-30T17:29:53.228Z,1008.96
2018-07-30T17:30:54.128Z,1008.90
2018-07-30T17:32:49.087Z,1008.96
2018-07-30T17:33:49.101Z,1008.97
2018-07-30T17:35:45.601Z,1008.94
2018-07-30T17:36:45.073Z,1008.95
2018-07-30T17:38:41.522Z,1008.96
2018-07-30T17:39:41.073Z,1008.96
2018-07-30T17:41:37.098Z,1008.98
2018-07-30T17:42:37.093Z,1008.95
2018-07-30T17:44:33.078Z,1008.95
2018-07-30T17:45:34.032Z,1008.98
2018-07-30T17:47:27.526Z,1008.93